KVBG/VBG METAR and TAF weather

Enter ICAO airport designator
Station Type Date Time Source
KVBG METAR 2022/11/26 09:55 UTC NOAA

KVBG 260955Z AUTO 00000KT 10SM CLR 05/M01 A3019 RMK AO2 SLP226 T00541009 TSNO $


Station Type Date Time Source
KVBG Decoded METAR 2022/11/26 09:55 UTC NOAA

Lompoc, Vandenberg Air Force Base, CA, United States (KVBG) 34-43-46N 120-34-36W 121M
Nov 26, 2022 - 04:55 AM EST / 2022.11.26 0955 UTC
Wind: Calm:0
Visibility: 10 mile(s):0
Sky conditions: clear
Temperature: 41.7 F (5.4 C)
Dew Point: 30.4 F (-0.9 C)
Relative Humidity: 63%
Pressure (altimeter): 30.19 in. Hg (1022 hPa)
ob: KVBG 260955Z AUTO 00000KT 10SM CLR 05/M01 A3019 RMK AO2 SLP226 T00541009 TSNO
cycle: 10

Station Type Date Time Source
KVBG TAF 2022/11/23 23:06 UTC NOAA

TAF KVBG 232300Z 2323/2505 34009KT 9999 SCT300 QNH3004INS
BECMG 2402/2403 11009KT 9999 FEW300 QNH3005INS
BECMG 2418/2419 31009KT 9999 SKC QNH3009INS
BECMG 2502/2503 10008KT 9999 SKC QNH3011INS TX23/2420Z TN06/2412Z LAST NO
AMDS AFT 2401 NEXT 2815

Example: see airport list